sensor_id;sensor_type;location;lat;lon;timestamp;pressure;altitude;pressure_sealevel;temperature;humidity
78317;BME280;67572;50.930;18.276;2023-11-21T00:02:14;98171.16;;;7.65;100.00
78317;BME280;67572;50.930;18.276;2023-11-21T00:05:22;98169.38;;;7.66;100.00
78317;BME280;67572;50.930;18.276;2023-11-21T00:08:29;98177.72;;;7.72;100.00
78317;BME280;67572;50.930;18.276;2023-11-21T00:11:35;98179.81;;;7.67;100.00
78317;BME280;67572;50.930;18.276;2023-11-21T00:14:41;98181.03;;;7.63;100.00
78317;BME280;67572;50.930;18.276;2023-11-21T00:17:45;98181.41;;;7.70;100.00
78317;BME280;67572;50.930;18.276;2023-11-21T00:20:52;98191.25;;;7.68;100.00
78317;BME280;67572;50.930;18.276;2023-11-21T00:23:57;98185.28;;;7.77;100.00
78317;BME280;67572;50.930;18.276;2023-11-21T00:27:04;98196.53;;;7.68;100.00
78317;BME280;67572;50.930;18.276;2023-11-21T00:30:08;98197.28;;;7.70;100.00
78317;BME280;67572;50.930;18.276;2023-11-21T00:33:13;98197.28;;;7.70;100.00
78317;BME280;67572;50.930;18.276;2023-11-21T00:36:22;98195.09;;;7.64;100.00
78317;BME280;67572;50.930;18.276;2023-11-21T00:39:26;98195.81;;;7.66;100.00
78317;BME280;67572;50.930;18.276;2023-11-21T00:42:34;98197.75;;;7.64;100.00
78317;BME280;67572;50.930;18.276;2023-11-21T00:45:38;98195.94;;;7.64;100.00
78317;BME280;67572;50.930;18.276;2023-11-21T00:48:43;98203.53;;;7.69;100.00
78317;BME280;67572;50.930;18.276;2023-11-21T00:51:50;98203.22;;;7.73;100.00
78317;BME280;67572;50.930;18.276;2023-11-21T00:54:54;98206.28;;;7.67;100.00
78317;BME280;67572;50.930;18.276;2023-11-21T00:58:00;98205.69;;;7.64;100.00
78317;BME280;67572;50.930;18.276;2023-11-21T01:01:06;98201.66;;;7.58;100.00
78317;BME280;67572;50.930;18.276;2023-11-21T01:04:12;98206.53;;;7.64;100.00
78317;BME280;67572;50.930;18.276;2023-11-21T01:07:18;98207.69;;;7.60;100.00
78317;BME280;67572;50.930;18.276;2023-11-21T01:10:23;98204.84;;;7.63;100.00
78317;BME280;67572;50.930;18.276;2023-11-21T01:13:31;98205.47;;;7.54;100.00
78317;BME280;67572;50.930;18.276;2023-11-21T01:16:35;98207.25;;;7.54;100.00
78317;BME280;67572;50.930;18.276;2023-11-21T01:19:39;98205.81;;;7.49;100.00
78317;BME280;67572;50.930;18.276;2023-11-21T01:22:51;98204.13;;;7.48;100.00
78317;BME280;67572;50.930;18.276;2023-11-21T01:25:57;98211.81;;;7.51;100.00
78317;BME280;67572;50.930;18.276;2023-11-21T01:29:05;98216.03;;;7.54;100.00
78317;BME280;67572;50.930;18.276;2023-11-21T01:32:14;98223.25;;;7.52;100.00
78317;BME280;67572;50.930;18.276;2023-11-21T01:35:18;98217.34;;;7.48;100.00
78317;BME280;67572;50.930;18.276;2023-11-21T01:38:26;98218.19;;;7.49;100.00
78317;BME280;67572;50.930;18.276;2023-11-21T01:44:17;98223.69;;;7.46;100.00
78317;BME280;67572;50.930;18.276;2023-11-21T01:47:23;98226.84;;;7.51;100.00
78317;BME280;67572;50.930;18.276;2023-11-21T01:50:29;98217.66;;;7.44;100.00
78317;BME280;67572;50.930;18.276;2023-11-21T01:53:36;98211.81;;;7.51;100.00
78317;BME280;67572;50.930;18.276;2023-11-21T01:56:46;98220.06;;;7.47;100.00
78317;BME280;67572;50.930;18.276;2023-11-21T01:59:54;98225.66;;;7.55;100.00
78317;BME280;67572;50.930;18.276;2023-11-21T02:03:01;98223.78;;;7.44;100.00
78317;BME280;67572;50.930;18.276;2023-11-21T02:06:07;98234.47;;;7.43;100.00
78317;BME280;67572;50.930;18.276;2023-11-21T02:09:11;98236.59;;;7.50;100.00
78317;BME280;67572;50.930;18.276;2023-11-21T02:12:19;98236.91;;;7.46;100.00
78317;BME280;67572;50.930;18.276;2023-11-21T02:15:31;98238.09;;;7.42;100.00
78317;BME280;67572;50.930;18.276;2023-11-21T02:18:36;98239.13;;;7.39;100.00
78317;BME280;67572;50.930;18.276;2023-11-21T02:21:40;98246.75;;;7.44;100.00
78317;BME280;67572;50.930;18.276;2023-11-21T02:24:55;98243.47;;;7.40;100.00
78317;BME280;67572;50.930;18.276;2023-11-21T02:28:01;98237.97;;;7.43;100.00
78317;BME280;67572;50.930;18.276;2023-11-21T02:31:05;98245.69;;;7.46;100.00
78317;BME280;67572;50.930;18.276;2023-11-21T02:34:10;98249.63;;;7.41;100.00
78317;BME280;67572;50.930;18.276;2023-11-21T02:37:15;98248.00;;;7.38;100.00
78317;BME280;67572;50.930;18.276;2023-11-21T02:40:20;98252.16;;;7.42;100.00
78317;BME280;67572;50.930;18.276;2023-11-21T02:43:27;98257.03;;;7.36;100.00
78317;BME280;67572;50.930;18.276;2023-11-21T02:46:35;98259.13;;;7.43;100.00
78317;BME280;67572;50.930;18.276;2023-11-21T02:49:43;98258.41;;;7.41;100.00
78317;BME280;67572;50.930;18.276;2023-11-21T02:52:47;98265.03;;;7.47;100.00
78317;BME280;67572;50.930;18.276;2023-11-21T02:55:56;98264.00;;;7.49;100.00
78317;BME280;67572;50.930;18.276;2023-11-21T02:59:01;98264.31;;;7.45;100.00
78317;BME280;67572;50.930;18.276;2023-11-21T03:02:09;98268.75;;;7.44;100.00
78317;BME280;67572;50.930;18.276;2023-11-21T03:05:16;98262.84;;;7.41;100.00
78317;BME280;67572;50.930;18.276;2023-11-21T03:08:25;98266.03;;;7.33;100.00
78317;BME280;67572;50.930;18.276;2023-11-21T03:11:34;98273.41;;;7.28;100.00
78317;BME280;67572;50.930;18.276;2023-11-21T03:14:41;98272.56;;;7.28;100.00
78317;BME280;67572;50.930;18.276;2023-11-21T03:17:45;98270.03;;;7.26;100.00
78317;BME280;67572;50.930;18.276;2023-11-21T03:20:52;98269.72;;;7.18;100.00
78317;BME280;67572;50.930;18.276;2023-11-21T03:23:57;98263.38;;;7.20;100.00
78317;BME280;67572;50.930;18.276;2023-11-21T03:27:04;98270.13;;;7.24;100.00
78317;BME280;67572;50.930;18.276;2023-11-21T03:30:09;98276.50;;;7.35;100.00
78317;BME280;67572;50.930;18.276;2023-11-21T03:33:14;98275.19;;;7.40;100.00
78317;BME280;67572;50.930;18.276;2023-11-21T03:36:18;98280.69;;;7.24;100.00
78317;BME280;67572;50.930;18.276;2023-11-21T03:39:24;98279.53;;;7.29;100.00
78317;BME280;67572;50.930;18.276;2023-11-21T03:42:30;98284.09;;;7.27;100.00
78317;BME280;67572;50.930;18.276;2023-11-21T03:45:38;98285.47;;;7.19;100.00
78317;BME280;67572;50.930;18.276;2023-11-21T03:48:51;98282.91;;;7.31;100.00
78317;BME280;67572;50.930;18.276;2023-11-21T03:52:02;98287.06;;;7.22;100.00
78317;BME280;67572;50.930;18.276;2023-11-21T03:55:07;98281.13;;;7.18;100.00
78317;BME280;67572;50.930;18.276;2023-11-21T03:58:17;98286.00;;;7.12;100.00
78317;BME280;67572;50.930;18.276;2023-11-21T04:01:29;98281.66;;;7.11;100.00
78317;BME280;67572;50.930;18.276;2023-11-21T04:04:34;98282.19;;;7.16;100.00
78317;BME280;67572;50.930;18.276;2023-11-21T04:07:37;98291.59;;;7.07;100.00
78317;BME280;67572;50.930;18.276;2023-11-21T04:10:48;98295.63;;;7.13;100.00
78317;BME280;67572;50.930;18.276;2023-11-21T04:13:56;98290.63;;;7.08;100.00
78317;BME280;67572;50.930;18.276;2023-11-21T04:17:07;98288.09;;;7.07;100.00
78317;BME280;67572;50.930;18.276;2023-11-21T04:20:12;98290.31;;;7.13;100.00
78317;BME280;67572;50.930;18.276;2023-11-21T04:23:18;98288.22;;;7.05;100.00
78317;BME280;67572;50.930;18.276;2023-11-21T04:26:26;98293.28;;;7.08;100.00
78317;BME280;67572;50.930;18.276;2023-11-21T04:29:31;98294.66;;;7.14;100.00
78317;BME280;67572;50.930;18.276;2023-11-21T04:32:38;98293.41;;;7.19;100.00
78317;BME280;67572;50.930;18.276;2023-11-21T04:35:46;98302.25;;;7.06;100.00
78317;BME280;67572;50.930;18.276;2023-11-21T04:38:50;98297.53;;;7.11;100.00
78317;BME280;67572;50.930;18.276;2023-11-21T04:41:57;98297.53;;;7.11;100.00
78317;BME280;67572;50.930;18.276;2023-11-21T04:45:04;98296.03;;;7.07;100.00
78317;BME280;67572;50.930;18.276;2023-11-21T05:01:45;98310.09;;;7.20;100.00
78317;BME280;67572;50.930;18.276;2023-11-21T05:04:50;98318.03;;;7.20;100.00
78317;BME280;67572;50.930;18.276;2023-11-21T05:07:55;98314.22;;;7.11;100.00
78317;BME280;67572;50.930;18.276;2023-11-21T05:10:59;98313.47;;;7.09;100.00
78317;BME280;67572;50.930;18.276;2023-11-21T05:14:03;98318.34;;;7.15;100.00
78317;BME280;67572;50.930;18.276;2023-11-21T05:17:10;98319.06;;;7.17;100.00
78317;BME280;67572;50.930;18.276;2023-11-21T05:20:14;98321.00;;;7.28;100.00
78317;BME280;67572;50.930;18.276;2023-11-21T05:23:20;98330.59;;;7.16;100.00
78317;BME280;67572;50.930;18.276;2023-11-21T05:26:24;98330.53;;;7.18;100.00
78317;BME280;67572;50.930;18.276;2023-11-21T05:29:28;98333.78;;;7.21;100.00
78317;BME280;67572;50.930;18.276;2023-11-21T05:32:33;98338.66;;;7.15;100.00
78317;BME280;67572;50.930;18.276;2023-11-21T05:35:40;98339.81;;;7.11;100.00
78317;BME280;67572;50.930;18.276;2023-11-21T05:38:44;98342.69;;;7.20;100.00
78317;BME280;67572;50.930;18.276;2023-11-21T05:41:48;98344.66;;;7.17;100.00
78317;BME280;67572;50.930;18.276;2023-11-21T05:44:51;98343.81;;;7.16;100.00
78317;BME280;67572;50.930;18.276;2023-11-21T05:47:58;98353.03;;;7.23;100.00
78317;BME280;67572;50.930;18.276;2023-11-21T05:51:03;98352.94;;;7.25;100.00
78317;BME280;67572;50.930;18.276;2023-11-21T05:54:06;98354.00;;;7.22;100.00
78317;BME280;67572;50.930;18.276;2023-11-21T05:57:13;98352.19;;;7.23;100.00
78317;BME280;67572;50.930;18.276;2023-11-21T06:00:19;98350.06;;;7.15;100.00
78317;BME280;67572;50.930;18.276;2023-11-21T06:03:26;98352.41;;;7.20;100.00
78317;BME280;67572;50.930;18.276;2023-11-21T06:06:30;98365.97;;;7.28;100.00
78317;BME280;67572;50.930;18.276;2023-11-21T06:09:34;98360.19;;;7.09;100.00
78317;BME280;67572;50.930;18.276;2023-11-21T06:12:38;98357.88;;;7.17;100.00
78317;BME280;67572;50.930;18.276;2023-11-21T06:15:45;98366.44;;;7.08;100.00
78317;BME280;67572;50.930;18.276;2023-11-21T06:18:50;98368.78;;;7.12;100.00
78317;BME280;67572;50.930;18.276;2023-11-21T06:21:54;98365.31;;;7.12;100.00
78317;BME280;67572;50.930;18.276;2023-11-21T06:24:57;98374.06;;;7.12;100.00
78317;BME280;67572;50.930;18.276;2023-11-21T06:28:01;98372.38;;;7.11;100.00
78317;BME280;67572;50.930;18.276;2023-11-21T06:31:05;98373.63;;;7.06;100.00
78317;BME280;67572;50.930;18.276;2023-11-21T06:34:13;98373.22;;;7.12;100.00
78317;BME280;67572;50.930;18.276;2023-11-21T06:37:17;98383.25;;;7.07;100.00
78317;BME280;67572;50.930;18.276;2023-11-21T06:40:23;98390.03;;;7.11;100.00
78317;BME280;67572;50.930;18.276;2023-11-21T06:43:27;98372.91;;;7.04;100.00
78317;BME280;67572;50.930;18.276;2023-11-21T06:46:31;98386.63;;;7.09;100.00
78317;BME280;67572;50.930;18.276;2023-11-21T06:49:37;98394.38;;;7.12;100.00
78317;BME280;67572;50.930;18.276;2023-11-21T06:52:41;98394.22;;;7.01;100.00
78317;BME280;67572;50.930;18.276;2023-11-21T06:55:45;98391.91;;;7.09;100.00
78317;BME280;67572;50.930;18.276;2023-11-21T06:58:50;98399.00;;;6.95;100.00
78317;BME280;67572;50.930;18.276;2023-11-21T07:01:56;98403.09;;;7.00;100.00
78317;BME280;67572;50.930;18.276;2023-11-21T07:05:03;98400.81;;;7.08;100.00
78317;BME280;67572;50.930;18.276;2023-11-21T07:08:08;98407.66;;;6.98;100.00
78317;BME280;67572;50.930;18.276;2023-11-21T07:11:12;98412.19;;;6.95;100.00
78317;BME280;67572;50.930;18.276;2023-11-21T07:14:16;98413.53;;;6.88;100.00
78317;BME280;67572;50.930;18.276;2023-11-21T07:17:23;98412.78;;;6.86;100.00
78317;BME280;67572;50.930;18.276;2023-11-21T07:20:28;98411.59;;;6.78;100.00
78317;BME280;67572;50.930;18.276;2023-11-21T07:23:33;98421.97;;;6.81;100.00
78317;BME280;67572;50.930;18.276;2023-11-21T07:26:37;98423.34;;;6.86;100.00
78317;BME280;67572;50.930;18.276;2023-11-21T07:41:11;98424.66;;;6.93;100.00
78317;BME280;67572;50.930;18.276;2023-11-21T07:44:31;98430.03;;;6.92;100.00
78317;BME280;67572;50.930;18.276;2023-11-21T07:47:36;98424.69;;;6.79;100.00
78317;BME280;67572;50.930;18.276;2023-11-21T07:50:42;98424.28;;;6.85;100.00
78317;BME280;67572;50.930;18.276;2023-11-21T07:53:46;98419.00;;;6.85;100.00
78317;BME280;67572;50.930;18.276;2023-11-21T07:56:53;98427.50;;;6.90;100.00
78317;BME280;67572;50.930;18.276;2023-11-21T07:59:57;98430.53;;;6.84;100.00
78317;BME280;67572;50.930;18.276;2023-11-21T08:03:02;98436.47;;;6.88;100.00
78317;BME280;67572;50.930;18.276;2023-11-21T08:06:07;98430.25;;;6.89;100.00
78317;BME280;67572;50.930;18.276;2023-11-21T08:09:12;98440.38;;;6.95;100.00
78317;BME280;67572;50.930;18.276;2023-11-21T08:12:17;98440.94;;;7.00;100.00
78317;BME280;67572;50.930;18.276;2023-11-21T08:15:22;98437.84;;;6.93;100.00
78317;BME280;67572;50.930;18.276;2023-11-21T08:18:25;98441.28;;;6.95;100.00
78317;BME280;67572;50.930;18.276;2023-11-21T08:21:29;98446.97;;;7.02;100.00
78317;BME280;67572;50.930;18.276;2023-11-21T08:24:33;98445.19;;;7.03;100.00
78317;BME280;67572;50.930;18.276;2023-11-21T08:27:38;98447.59;;;7.20;100.00
78317;BME280;67572;50.930;18.276;2023-11-21T08:30:44;98452.56;;;7.24;100.00
78317;BME280;67572;50.930;18.276;2023-11-21T08:33:48;98452.03;;;7.19;100.00
78317;BME280;67572;50.930;18.276;2023-11-21T08:36:55;98448.66;;;7.30;100.00
78317;BME280;67572;50.930;18.276;2023-11-21T08:40:01;98453.00;;;7.18;100.00
78317;BME280;67572;50.930;18.276;2023-11-21T08:43:06;98448.13;;;7.25;100.00
78317;BME280;67572;50.930;18.276;2023-11-21T08:46:11;98449.28;;;7.21;100.00
78317;BME280;67572;50.930;18.276;2023-11-21T08:49:16;98462.22;;;7.26;100.00
78317;BME280;67572;50.930;18.276;2023-11-21T08:52:19;98461.59;;;7.35;100.00
78317;BME280;67572;50.930;18.276;2023-11-21T08:55:27;98459.13;;;7.32;100.00
78317;BME280;67572;50.930;18.276;2023-11-21T08:58:32;98454.69;;;7.19;100.00
78317;BME280;67572;50.930;18.276;2023-11-21T09:01:39;98460.50;;;7.24;100.00
78317;BME280;67572;50.930;18.276;2023-11-21T09:04:46;98461.56;;;7.22;100.00
78317;BME280;67572;50.930;18.276;2023-11-21T09:07:53;98466.03;;;7.34;100.00
78317;BME280;67572;50.930;18.276;2023-11-21T09:10:57;98459.41;;;7.54;100.00
78317;BME280;67572;50.930;18.276;2023-11-21T09:14:08;98469.34;;;7.50;100.00
78317;BME280;67572;50.930;18.276;2023-11-21T09:17:12;98462.38;;;7.49;100.00
78317;BME280;67572;50.930;18.276;2023-11-21T09:20:16;98476.03;;;7.56;100.00
78317;BME280;67572;50.930;18.276;2023-11-21T09:23:20;98470.66;;;7.58;100.00
78317;BME280;67572;50.930;18.276;2023-11-21T09:26:24;98473.91;;;7.48;100.00
78317;BME280;67572;50.930;18.276;2023-11-21T09:29:37;98469.03;;;7.42;100.00
78317;BME280;67572;50.930;18.276;2023-11-21T09:32:41;98466.16;;;7.45;100.00
78317;BME280;67572;50.930;18.276;2023-11-21T09:48:15;98474.72;;;7.36;100.00
78317;BME280;67572;50.930;18.276;2023-11-21T09:51:24;98469.31;;;7.38;100.00
78317;BME280;67572;50.930;18.276;2023-11-21T09:54:32;98464.03;;;7.38;100.00
78317;BME280;67572;50.930;18.276;2023-11-21T09:57:35;98464.25;;;7.35;100.00
78317;BME280;67572;50.930;18.276;2023-11-21T10:00:43;98465.53;;;7.42;100.00
78317;BME280;67572;50.930;18.276;2023-11-21T10:03:55;98462.22;;;7.38;100.00
78317;BME280;67572;50.930;18.276;2023-11-21T10:07:01;98461.09;;;7.42;100.00
78317;BME280;67572;50.930;18.276;2023-11-21T10:10:07;98469.34;;;7.50;100.00
78317;BME280;67572;50.930;18.276;2023-11-21T10:13:13;98464.59;;;7.43;100.00
78317;BME280;67572;50.930;18.276;2023-11-21T10:16:23;98469.53;;;7.47;100.00
78317;BME280;67572;50.930;18.276;2023-11-21T10:19:31;98471.06;;;7.51;100.00
78317;BME280;67572;50.930;18.276;2023-11-21T10:22:35;98457.59;;;7.55;100.00
78317;BME280;67572;50.930;18.276;2023-11-21T10:25:39;98473.69;;;7.51;100.00
78317;BME280;67572;50.930;18.276;2023-11-21T10:28:55;98475.09;;;7.57;100.00
78317;BME280;67572;50.930;18.276;2023-11-21T10:32:02;98480.16;;;7.60;100.00
78317;BME280;67572;50.930;18.276;2023-11-21T10:35:10;98473.03;;;7.48;100.00
78317;BME280;67572;50.930;18.276;2023-11-21T10:38:14;98475.44;;;7.65;100.00
78317;BME280;67572;50.930;18.276;2023-11-21T10:41:18;98480.56;;;7.54;100.00
78317;BME280;67572;50.930;18.276;2023-11-21T10:44:22;98483.78;;;7.59;100.00
78317;BME280;67572;50.930;18.276;2023-11-21T10:47:27;98485.75;;;7.56;100.00
78317;BME280;67572;50.930;18.276;2023-11-21T10:50:34;98486.13;;;7.64;100.00
78317;BME280;67572;50.930;18.276;2023-11-21T10:53:41;98492.56;;;7.33;100.00
78317;BME280;67572;50.930;18.276;2023-11-21T10:56:49;98488.00;;;7.22;100.00
78317;BME280;67572;50.930;18.276;2023-11-21T10:59:54;98492.97;;;7.00;100.00
78317;BME280;67572;50.930;18.276;2023-11-21T11:03:01;98505.75;;;6.79;100.00
78317;BME280;67572;50.930;18.276;2023-11-21T11:06:08;98505.75;;;6.64;100.00
78317;BME280;67572;50.930;18.276;2023-11-21T11:09:14;98504.44;;;6.57;100.00
78317;BME280;67572;50.930;18.276;2023-11-21T11:12:19;98511.25;;;6.47;100.00
78317;BME280;67572;50.930;18.276;2023-11-21T11:15:26;98511.44;;;6.58;100.00
78317;BME280;67572;50.930;18.276;2023-11-21T11:18:31;98518.13;;;6.50;100.00
78317;BME280;67572;50.930;18.276;2023-11-21T11:21:46;98517.09;;;6.24;100.00
78317;BME280;67572;50.930;18.276;2023-11-21T11:25:18;98522.84;;;6.30;100.00
78317;BME280;67572;50.930;18.276;2023-11-21T11:28:31;98526.44;;;6.15;100.00
78317;BME280;67572;50.930;18.276;2023-11-21T11:31:50;98526.44;;;5.85;100.00
78317;BME280;67572;50.930;18.276;2023-11-21T11:35:04;98531.84;;;5.38;100.00
78317;BME280;67572;50.930;18.276;2023-11-21T11:38:13;98531.97;;;5.50;100.00
78317;BME280;67572;50.930;18.276;2023-11-21T11:41:25;98532.78;;;5.37;100.00
78317;BME280;67572;50.930;18.276;2023-11-21T11:44:51;98537.69;;;5.43;100.00
78317;BME280;67572;50.930;18.276;2023-11-21T11:48:00;98545.63;;;5.27;100.00
78317;BME280;67572;50.930;18.276;2023-11-21T11:51:07;98542.56;;;5.19;100.00
78317;BME280;67572;50.930;18.276;2023-11-21T11:54:34;98550.81;;;4.97;100.00
78317;BME280;67572;50.930;18.276;2023-11-21T11:57:40;98552.50;;;5.14;100.00
78317;BME280;67572;50.930;18.276;2023-11-21T12:00:44;98562.63;;;5.06;100.00
78317;BME280;67572;50.930;18.276;2023-11-21T12:04:23;98556.69;;;5.02;100.00
78317;BME280;67572;50.930;18.276;2023-11-21T12:07:41;98559.88;;;4.76;100.00
78317;BME280;67572;50.930;18.276;2023-11-21T12:10:49;98557.34;;;4.74;100.00
78317;BME280;67572;50.930;18.276;2023-11-21T12:13:54;98557.59;;;4.69;100.00
78317;BME280;67572;50.930;18.276;2023-11-21T12:16:58;98554.78;;;4.72;100.00
78317;BME280;67572;50.930;18.276;2023-11-21T12:20:04;98556.16;;;4.95;100.00
78317;BME280;67572;50.930;18.276;2023-11-21T12:23:08;98560.75;;;4.92;100.00
78317;BME280;67572;50.930;18.276;2023-11-21T12:26:15;98565.84;;;4.79;100.00
78317;BME280;67572;50.930;18.276;2023-11-21T12:29:19;98564.47;;;4.72;100.00
78317;BME280;67572;50.930;18.276;2023-11-21T12:32:25;98577.72;;;4.70;100.00
78317;BME280;67572;50.930;18.276;2023-11-21T12:35:31;98574.66;;;4.62;100.00
78317;BME280;67572;50.930;18.276;2023-11-21T12:38:36;98568.53;;;4.62;100.00
78317;BME280;67572;50.930;18.276;2023-11-21T12:41:41;98584.31;;;4.46;100.00
78317;BME280;67572;50.930;18.276;2023-11-21T12:44:46;98583.38;;;4.30;100.00
78317;BME280;67572;50.930;18.276;2023-11-21T12:47:50;98590.16;;;4.51;100.00
78317;BME280;67572;50.930;18.276;2023-11-21T12:50:55;98589.47;;;4.48;100.00
78317;BME280;67572;50.930;18.276;2023-11-21T12:54:05;98595.88;;;4.59;100.00
78317;BME280;67572;50.930;18.276;2023-11-21T12:57:11;98599.44;;;4.58;100.00
78317;BME280;67572;50.930;18.276;2023-11-21T13:00:16;98607.28;;;4.42;100.00
78317;BME280;67572;50.930;18.276;2023-11-21T13:03:30;98612.78;;;4.38;100.00
78317;BME280;67572;50.930;18.276;2023-11-21T13:06:36;98612.78;;;4.38;100.00
78317;BME280;67572;50.930;18.276;2023-11-21T13:09:44;98614.34;;;4.42;100.00
78317;BME280;67572;50.930;18.276;2023-11-21T13:12:51;98621.94;;;4.31;100.00
78317;BME280;67572;50.930;18.276;2023-11-21T13:15:56;98620.38;;;4.27;100.00
78317;BME280;67572;50.930;18.276;2023-11-21T13:19:04;98626.72;;;4.40;100.00
78317;BME280;67572;50.930;18.276;2023-11-21T13:22:07;98631.53;;;4.32;100.00
78317;BME280;67572;50.930;18.276;2023-11-21T13:25:14;98635.72;;;4.18;100.00
78317;BME280;67572;50.930;18.276;2023-11-21T13:28:24;98634.63;;;4.23;100.00
78317;BME280;67572;50.930;18.276;2023-11-21T13:31:34;98635.56;;;4.22;100.00
78317;BME280;67572;50.930;18.276;2023-11-21T13:34:40;98638.63;;;4.30;100.00
78317;BME280;67572;50.930;18.276;2023-11-21T13:37:49;98638.91;;;4.25;100.00
78317;BME280;67572;50.930;18.276;2023-11-21T13:40:55;98648.91;;;4.52;100.00
78317;BME280;67572;50.930;18.276;2023-11-21T13:44:01;98664.25;;;4.43;100.00
78317;BME280;67572;50.930;18.276;2023-11-21T13:47:19;98655.53;;;4.43;100.00
78317;BME280;67572;50.930;18.276;2023-11-21T13:50:26;98658.06;;;4.44;100.00
78317;BME280;67572;50.930;18.276;2023-11-21T13:53:35;98668.91;;;4.21;100.00
78317;BME280;67572;50.930;18.276;2023-11-21T13:56:42;98673.41;;;4.02;100.00
78317;BME280;67572;50.930;18.276;2023-11-21T13:59:54;98669.22;;;4.15;100.00
78317;BME280;67572;50.930;18.276;2023-11-21T14:03:16;98677.09;;;4.15;100.00
78317;BME280;67572;50.930;18.276;2023-11-21T14:06:47;98682.44;;;3.96;100.00
78317;BME280;67572;50.930;18.276;2023-11-21T14:10:06;98691.94;;;3.99;100.00
78317;BME280;67572;50.930;18.276;2023-11-21T14:13:15;98694.63;;;3.80;100.00
78317;BME280;67572;50.930;18.276;2023-11-21T14:16:21;98700.50;;;3.85;100.00
78317;BME280;67572;50.930;18.276;2023-11-21T14:19:25;98702.38;;;3.83;100.00
78317;BME280;67572;50.930;18.276;2023-11-21T14:22:32;98708.63;;;3.80;100.00
78317;BME280;67572;50.930;18.276;2023-11-21T14:25:37;98711.91;;;3.67;100.00
78317;BME280;67572;50.930;18.276;2023-11-21T14:28:42;98724.28;;;3.65;100.00
78317;BME280;67572;50.930;18.276;2023-11-21T14:31:48;98723.94;;;3.72;100.00
78317;BME280;67572;50.930;18.276;2023-11-21T14:34:54;98727.63;;;3.49;100.00
78317;BME280;67572;50.930;18.276;2023-11-21T14:37:59;98730.34;;;3.48;100.00
78317;BME280;67572;50.930;18.276;2023-11-21T14:41:06;98737.13;;;3.52;100.00
78317;BME280;67572;50.930;18.276;2023-11-21T14:57:41;98757.75;;;3.42;100.00
78317;BME280;67572;50.930;18.276;2023-11-21T15:00:55;98756.00;;;3.22;100.00
78317;BME280;67572;50.930;18.276;2023-11-21T15:04:04;98759.38;;;3.05;100.00
78317;BME280;67572;50.930;18.276;2023-11-21T15:07:10;98762.34;;;3.18;100.00
78317;BME280;67572;50.930;18.276;2023-11-21T15:10:13;98768.50;;;3.17;100.00
78317;BME280;67572;50.930;18.276;2023-11-21T15:13:23;98769.13;;;3.03;100.00
78317;BME280;67572;50.930;18.276;2023-11-21T15:16:30;98778.38;;;2.92;100.00
78317;BME280;67572;50.930;18.276;2023-11-21T15:19:33;98782.09;;;2.86;100.00
78317;BME280;67572;50.930;18.276;2023-11-21T15:22:37;98791.50;;;2.71;100.00
78317;BME280;67572;50.930;18.276;2023-11-21T15:25:43;98780.81;;;2.76;100.00
78317;BME280;67572;50.930;18.276;2023-11-21T15:28:50;98790.63;;;2.71;100.00
78317;BME280;67572;50.930;18.276;2023-11-21T15:31:55;98787.69;;;2.58;100.00
78317;BME280;67572;50.930;18.276;2023-11-21T15:35:00;98792.28;;;2.31;100.00
78317;BME280;67572;50.930;18.276;2023-11-21T15:38:05;98792.66;;;2.44;100.00
78317;BME280;67572;50.930;18.276;2023-11-21T15:41:10;98789.75;;;2.30;100.00
78317;BME280;67572;50.930;18.276;2023-11-21T15:44:16;98800.34;;;2.27;100.00
78317;BME280;67572;50.930;18.276;2023-11-21T15:47:24;98809.41;;;2.19;100.00
78317;BME280;67572;50.930;18.276;2023-11-21T15:50:32;98815.22;;;2.26;100.00
78317;BME280;67572;50.930;18.276;2023-11-21T15:53:37;98822.31;;;2.24;100.00
78317;BME280;67572;50.930;18.276;2023-11-21T15:56:49;98828.16;;;2.09;100.00
78317;BME280;67572;50.930;18.276;2023-11-21T15:59:58;98828.19;;;2.31;100.00
78317;BME280;67572;50.930;18.276;2023-11-21T16:03:09;98839.41;;;2.12;100.00
78317;BME280;67572;50.930;18.276;2023-11-21T16:06:14;98848.13;;;2.13;100.00
78317;BME280;67572;50.930;18.276;2023-11-21T16:09:18;98849.22;;;2.07;100.00
78317;BME280;67572;50.930;18.276;2023-11-21T16:12:26;98848.00;;;2.16;100.00
78317;BME280;67572;50.930;18.276;2023-11-21T16:25:16;98864.19;;;2.04;100.00
78317;BME280;67572;50.930;18.276;2023-11-21T16:28:22;98879.44;;;1.71;100.00
78317;BME280;67572;50.930;18.276;2023-11-21T16:31:27;98882.13;;;1.69;100.00
78317;BME280;67572;50.930;18.276;2023-11-21T16:34:33;98886.09;;;1.79;100.00
78317;BME280;67572;50.930;18.276;2023-11-21T16:37:39;98893.31;;;1.74;100.00
78317;BME280;67572;50.930;18.276;2023-11-21T16:41:04;98894.72;;;1.59;100.00
78317;BME280;67572;50.930;18.276;2023-11-21T16:44:13;98902.69;;;1.80;100.00
78317;BME280;67572;50.930;18.276;2023-11-21T16:47:25;98907.06;;;1.56;100.00
78317;BME280;67572;50.930;18.276;2023-11-21T16:50:32;98910.47;;;1.58;100.00
78317;BME280;67572;50.930;18.276;2023-11-21T16:53:38;98910.78;;;1.49;100.00
78317;BME280;67572;50.930;18.276;2023-11-21T16:56:54;98915.94;;;1.52;100.00
78317;BME280;67572;50.930;18.276;2023-11-21T17:00:07;98927.22;;;1.54;100.00
78317;BME280;67572;50.930;18.276;2023-11-21T17:03:14;98936.41;;;1.41;100.00
78317;BME280;67572;50.930;18.276;2023-11-21T17:06:18;98938.97;;;1.17;100.00
78317;BME280;67572;50.930;18.276;2023-11-21T17:09:22;98941.69;;;1.14;100.00
78317;BME280;67572;50.930;18.276;2023-11-21T17:12:28;98946.41;;;1.03;100.00
78317;BME280;67572;50.930;18.276;2023-11-21T17:15:32;98949.91;;;1.28;100.00
78317;BME280;67572;50.930;18.276;2023-11-21T17:18:36;98951.34;;;1.12;100.00
78317;BME280;67572;50.930;18.276;2023-11-21T17:21:41;98959.47;;;1.04;100.00